createdAt,value
2023-05-21T00:00:12.259Z,86.16
2023-05-21T00:02:40.232Z,85.98
2023-05-21T00:05:13.757Z,85.85
2023-05-21T00:07:41.891Z,85.63
2023-05-21T00:10:09.293Z,85.39
2023-05-21T00:12:51.348Z,85.18
2023-05-21T00:15:18.151Z,84.85
2023-05-21T00:17:46.196Z,84.56
2023-05-21T00:20:13.519Z,84.28
2023-05-21T00:22:42.521Z,84.00
2023-05-21T00:25:12.154Z,83.71
2023-05-21T00:27:39.293Z,83.64
2023-05-21T00:30:06.890Z,83.34
2023-05-21T00:32:33.793Z,83.13
2023-05-21T00:35:00.755Z,82.87
2023-05-21T00:37:29.958Z,82.64
2023-05-21T00:39:58.280Z,82.50
2023-05-21T00:42:27.474Z,82.41
2023-05-21T00:44:54.397Z,82.30
2023-05-21T00:47:21.702Z,82.25
2023-05-21T00:49:51.531Z,82.14
2023-05-21T00:52:20.429Z,81.87
2023-05-21T00:54:49.766Z,81.80
2023-05-21T00:57:20.825Z,81.63
2023-05-21T00:59:50.880Z,81.56
2023-05-21T01:02:18.614Z,81.51
2023-05-21T01:04:46.031Z,81.47
2023-05-21T01:07:14.695Z,81.48
2023-05-21T01:09:42.614Z,81.47
2023-05-21T01:12:10.880Z,81.36
2023-05-21T01:14:39.406Z,81.31
2023-05-21T01:17:10.570Z,81.19
2023-05-21T01:19:37.829Z,81.00
2023-05-21T01:22:07.385Z,80.95
2023-05-21T01:24:35.533Z,80.95
2023-05-21T01:27:06.763Z,80.71
2023-05-21T01:29:34.124Z,80.81
2023-05-21T01:32:04.634Z,80.67
2023-05-21T01:34:42.196Z,80.68
2023-05-21T01:37:17.562Z,80.48
2023-05-21T01:39:51.228Z,80.50
2023-05-21T01:42:19.790Z,80.38
2023-05-21T01:44:48.728Z,80.25
2023-05-21T01:47:18.060Z,80.11
2023-05-21T01:49:45.774Z,79.92
2023-05-21T01:52:13.002Z,79.89
2023-05-21T01:54:39.991Z,80.04
2023-05-21T01:57:07.040Z,79.88
2023-05-21T01:59:35.168Z,79.84
2023-05-21T02:02:02.636Z,79.78
2023-05-21T02:04:29.541Z,79.53
2023-05-21T02:06:56.349Z,79.40
2023-05-21T02:09:23.763Z,79.42
2023-05-21T02:11:50.520Z,79.27
2023-05-21T02:14:17.334Z,79.25
2023-05-21T02:16:44.358Z,79.20
2023-05-21T02:19:11.311Z,79.12
2023-05-21T02:21:38.314Z,79.05
2023-05-21T02:24:05.558Z,78.78
2023-05-21T02:26:32.437Z,78.73
2023-05-21T02:28:59.232Z,78.77
2023-05-21T02:31:26.135Z,78.83
2023-05-21T02:33:52.923Z,78.88
2023-05-21T02:36:19.753Z,78.80
2023-05-21T02:38:46.735Z,78.67
2023-05-21T02:41:14.066Z,78.53
2023-05-21T02:43:41.179Z,78.39
2023-05-21T02:46:14.013Z,78.30
2023-05-21T02:48:41.119Z,78.25
2023-05-21T02:51:08.361Z,78.29
2023-05-21T02:53:35.338Z,78.16
2023-05-21T02:56:02.572Z,78.02
2023-05-21T02:58:29.379Z,78.00
2023-05-21T03:00:56.278Z,77.91
2023-05-21T03:03:23.196Z,77.79
2023-05-21T03:05:50.588Z,77.75
2023-05-21T03:08:18.955Z,77.67
2023-05-21T03:10:46.480Z,77.55
2023-05-21T03:13:13.455Z,77.42
2023-05-21T03:15:40.422Z,77.23
2023-05-21T03:18:08.911Z,77.19
2023-05-21T03:20:35.917Z,77.13
2023-05-21T03:23:04.626Z,76.88
2023-05-21T03:25:31.749Z,76.99
2023-05-21T03:27:58.811Z,76.85
2023-05-21T03:30:40.959Z,76.71
2023-05-21T03:33:23.339Z,76.55
2023-05-21T03:35:51.092Z,76.37
2023-05-21T03:38:18.281Z,76.31
2023-05-21T03:40:45.116Z,76.23
2023-05-21T03:43:12.463Z,76.13
2023-05-21T03:45:40.819Z,75.98
2023-05-21T03:48:24.291Z,75.97
2023-05-21T03:50:51.621Z,75.67
2023-05-21T03:53:18.534Z,75.82
2023-05-21T03:55:47.297Z,75.51
2023-05-21T03:58:14.119Z,75.73
2023-05-21T04:00:41.071Z,76.20
2023-05-21T04:03:07.982Z,75.98
2023-05-21T04:05:35.202Z,75.78
2023-05-21T04:08:02.830Z,75.75
2023-05-21T04:10:29.984Z,75.72
2023-05-21T04:12:56.829Z,75.68
2023-05-21T04:15:24.576Z,75.37
2023-05-21T04:17:52.634Z,74.99
2023-05-21T04:20:19.862Z,74.54
2023-05-21T04:22:46.962Z,74.66
2023-05-21T04:25:14.041Z,74.30
2023-05-21T04:27:42.883Z,74.18
2023-05-21T04:30:11.225Z,74.10
2023-05-21T04:32:38.688Z,74.05
2023-05-21T04:35:07.772Z,73.40
2023-05-21T04:37:35.270Z,72.21
2023-05-21T04:40:02.592Z,71.24
2023-05-21T04:42:30.556Z,70.95
2023-05-21T04:44:59.501Z,69.37
2023-05-21T04:47:30.425Z,67.69
2023-05-21T04:49:57.447Z,66.34
2023-05-21T04:52:25.132Z,64.52
2023-05-21T04:54:54.172Z,63.36
2023-05-21T04:57:21.906Z,61.79
2023-05-21T04:59:49.565Z,60.52
2023-05-21T05:02:17.064Z,59.79
2023-05-21T05:04:44.149Z,58.90
2023-05-21T05:07:11.308Z,57.39
2023-05-21T05:09:38.201Z,56.47
2023-05-21T05:12:05.603Z,54.74
2023-05-21T05:14:32.484Z,54.00
2023-05-21T05:17:00.192Z,53.40
2023-05-21T05:19:28.184Z,51.84
2023-05-21T05:21:55.117Z,51.01
2023-05-21T05:24:21.970Z,50.19
2023-05-21T05:26:49.789Z,49.10
2023-05-21T05:29:16.641Z,48.92
2023-05-21T05:31:43.488Z,48.50
2023-05-21T05:34:10.832Z,50.00
2023-05-21T05:36:38.231Z,49.11
2023-05-21T05:39:05.703Z,48.83
2023-05-21T05:41:32.695Z,49.41
2023-05-21T05:43:59.556Z,50.04
2023-05-21T05:46:29.625Z,50.18
2023-05-21T05:48:57.501Z,49.90
2023-05-21T05:51:24.266Z,49.29
2023-05-21T05:53:51.146Z,48.48
2023-05-21T05:56:17.924Z,47.75
2023-05-21T05:58:44.905Z,46.40
2023-05-21T06:01:13.862Z,45.64
2023-05-21T06:03:41.172Z,44.39
2023-05-21T06:06:12.130Z,43.35
2023-05-21T06:08:40.671Z,42.26
2023-05-21T06:11:07.700Z,41.73
2023-05-21T06:13:34.634Z,41.80
2023-05-21T06:16:02.223Z,41.35
2023-05-21T06:18:29.171Z,39.46
2023-05-21T06:20:55.987Z,38.96
2023-05-21T06:23:23.019Z,37.20
2023-05-21T06:25:50.152Z,36.27
2023-05-21T06:28:17.779Z,37.05
2023-05-21T06:30:44.997Z,35.96
2023-05-21T06:33:12.802Z,35.40
2023-05-21T06:35:40.441Z,35.46
2023-05-21T06:38:08.192Z,34.55
2023-05-21T06:40:35.795Z,34.52
2023-05-21T06:43:04.977Z,33.62
2023-05-21T06:45:31.828Z,32.84
2023-05-21T06:48:01.775Z,32.73
2023-05-21T06:50:29.767Z,32.09
2023-05-21T06:52:56.697Z,31.09
2023-05-21T06:55:23.625Z,31.21
2023-05-21T06:58:06.166Z,30.41
2023-05-21T07:00:33.622Z,30.59
2023-05-21T07:03:00.659Z,29.78
2023-05-21T07:05:27.505Z,29.73
2023-05-21T07:07:54.584Z,29.38
2023-05-21T07:10:21.460Z,29.77
2023-05-21T07:12:49.767Z,29.75
2023-05-21T07:15:17.299Z,29.59
2023-05-21T07:17:45.036Z,29.53
2023-05-21T07:20:14.357Z,28.91
2023-05-21T07:22:44.116Z,28.27
2023-05-21T07:25:13.780Z,28.14
2023-05-21T07:27:42.063Z,28.15
2023-05-21T07:30:10.107Z,27.23
2023-05-21T07:32:37.383Z,27.16
2023-05-21T07:35:04.607Z,27.26
2023-05-21T07:37:31.726Z,27.01
2023-05-21T07:39:59.412Z,26.66
2023-05-21T07:42:27.037Z,26.92
2023-05-21T07:44:54.480Z,26.85
2023-05-21T07:47:23.772Z,26.61
2023-05-21T07:49:51.569Z,26.45
2023-05-21T07:52:18.591Z,26.85
2023-05-21T07:54:45.723Z,27.08
2023-05-21T07:57:12.598Z,26.30
2023-05-21T07:59:54.053Z,24.86
2023-05-21T08:02:21.253Z,25.53
2023-05-21T08:04:48.255Z,25.09
2023-05-21T08:07:17.335Z,25.43
2023-05-21T08:09:44.292Z,25.66
2023-05-21T08:12:14.884Z,24.57
2023-05-21T08:14:42.779Z,24.30
2023-05-21T08:17:12.129Z,24.21
2023-05-21T08:19:39.582Z,25.40
2023-05-21T08:22:07.712Z,25.13
2023-05-21T08:24:36.023Z,24.51
2023-05-21T08:27:03.929Z,23.80
2023-05-21T08:29:30.892Z,24.00
2023-05-21T08:31:57.794Z,23.99
2023-05-21T08:34:26.818Z,25.00
2023-05-21T08:37:07.253Z,23.75
2023-05-21T08:39:54.193Z,23.93
2023-05-21T08:42:49.227Z,23.69
2023-05-21T08:45:22.283Z,23.84
2023-05-21T08:47:56.729Z,24.45
2023-05-21T08:50:27.388Z,24.26
2023-05-21T08:52:55.518Z,24.29
2023-05-21T08:55:25.144Z,23.76
2023-05-21T08:57:54.521Z,23.20
2023-05-21T09:00:22.968Z,23.86
2023-05-21T09:02:54.625Z,24.25
2023-05-21T09:05:22.552Z,24.90
2023-05-21T09:08:05.625Z,23.67
2023-05-21T09:10:51.571Z,23.99
2023-05-21T09:13:20.930Z,24.81
2023-05-21T09:15:48.962Z,23.92
2023-05-21T09:18:16.232Z,23.86
2023-05-21T09:20:49.921Z,24.45
2023-05-21T09:23:18.112Z,24.86
2023-05-21T09:25:47.610Z,24.33
2023-05-21T09:28:20.068Z,25.69
2023-05-21T09:30:48.541Z,24.27
2023-05-21T09:33:30.958Z,23.98
2023-05-21T09:35:58.015Z,23.80
2023-05-21T09:38:27.050Z,23.80
2023-05-21T09:40:56.925Z,23.64
2023-05-21T09:43:25.337Z,24.01
2023-05-21T09:45:56.898Z,24.87
2023-05-21T09:48:43.246Z,24.47
2023-05-21T09:51:14.877Z,25.28
2023-05-21T09:53:45.112Z,25.09
2023-05-21T09:56:12.009Z,26.38
2023-05-21T09:58:39.043Z,26.75
2023-05-21T10:01:08.108Z,27.60
2023-05-21T10:03:40.056Z,27.12
2023-05-21T10:06:09.450Z,26.06
2023-05-21T10:08:39.527Z,25.99
2023-05-21T10:11:06.930Z,26.97
2023-05-21T10:13:39.874Z,27.17
2023-05-21T10:16:07.162Z,27.94
2023-05-21T10:18:35.069Z,28.32
2023-05-21T10:21:02.716Z,27.68
2023-05-21T10:23:30.216Z,29.27
2023-05-21T10:25:58.797Z,28.95
2023-05-21T10:28:25.978Z,28.74
2023-05-21T10:30:54.305Z,28.93
2023-05-21T10:33:24.472Z,29.03
2023-05-21T10:35:53.341Z,27.58
2023-05-21T10:38:21.156Z,28.95
2023-05-21T10:40:49.218Z,29.19
2023-05-21T10:43:47.295Z,28.91
2023-05-21T10:46:37.113Z,28.79
2023-05-21T10:49:19.342Z,28.88
2023-05-21T10:52:23.486Z,27.97
2023-05-21T10:55:11.367Z,29.76
2023-05-21T10:57:53.522Z,29.06
2023-05-21T11:00:21.374Z,28.37
2023-05-21T11:02:52.013Z,28.12
2023-05-21T11:05:39.968Z,29.48
2023-05-21T11:08:21.116Z,29.97
2023-05-21T11:10:52.961Z,29.86
2023-05-21T11:13:21.980Z,28.07
2023-05-21T11:16:07.305Z,28.98
2023-05-21T11:18:34.157Z,28.66
2023-05-21T11:21:06.388Z,29.02
2023-05-21T11:23:49.685Z,29.10
2023-05-21T11:26:19.343Z,28.12
2023-05-21T11:28:46.195Z,28.26
2023-05-21T11:31:30.487Z,29.94
2023-05-21T11:34:14.202Z,29.49
2023-05-21T11:36:44.466Z,27.41
2023-05-21T11:39:18.514Z,28.02
2023-05-21T11:42:04.431Z,27.99
2023-05-21T11:44:40.151Z,27.08
2023-05-21T11:47:09.120Z,27.59
2023-05-21T11:49:37.607Z,27.37
2023-05-21T11:52:06.312Z,26.36
2023-05-21T11:54:37.545Z,26.23
2023-05-21T11:57:08.712Z,25.73
2023-05-21T11:59:36.560Z,25.35
2023-05-21T12:02:05.205Z,25.56
2023-05-21T12:04:36.474Z,25.41
2023-05-21T12:07:07.396Z,24.42
2023-05-21T12:09:51.482Z,24.33
2023-05-21T12:12:22.515Z,24.00
2023-05-21T12:14:51.430Z,23.44
2023-05-21T12:17:20.616Z,22.87
2023-05-21T12:19:48.725Z,23.71
2023-05-21T12:22:16.832Z,24.30
2023-05-21T12:24:44.770Z,23.75
2023-05-21T12:27:13.608Z,24.62
2023-05-21T12:29:44.466Z,24.26
2023-05-21T12:32:13.071Z,24.11
2023-05-21T12:34:56.400Z,24.46
2023-05-21T12:37:26.758Z,24.30
2023-05-21T12:39:54.999Z,24.01
2023-05-21T12:42:27.326Z,23.87
2023-05-21T12:44:54.752Z,24.49
2023-05-21T12:47:25.718Z,23.54
2023-05-21T12:50:01.767Z,23.38
2023-05-21T12:52:29.367Z,23.91
2023-05-21T12:54:58.042Z,23.82
2023-05-21T12:57:28.366Z,23.01
2023-05-21T12:59:57.986Z,23.13
2023-05-21T13:02:25.975Z,23.15
2023-05-21T13:05:02.213Z,23.63
2023-05-21T13:07:31.195Z,23.31
2023-05-21T13:09:58.844Z,24.14
2023-05-21T13:12:28.137Z,24.26
2023-05-21T13:14:56.922Z,25.38
2023-05-21T13:17:25.108Z,24.02
2023-05-21T13:20:08.825Z,24.02
2023-05-21T13:22:39.207Z,24.30
2023-05-21T13:25:07.401Z,25.16
2023-05-21T13:27:34.357Z,27.02
2023-05-21T13:30:02.226Z,27.52
2023-05-21T13:32:29.093Z,27.34
2023-05-21T13:34:56.170Z,26.94
2023-05-21T13:37:23.012Z,27.45
2023-05-21T13:39:50.001Z,26.60
2023-05-21T13:42:17.591Z,27.18
2023-05-21T13:44:44.374Z,25.61
2023-05-21T13:47:12.139Z,25.37
2023-05-21T13:49:39.727Z,26.63
2023-05-21T13:52:08.512Z,26.74
2023-05-21T13:54:36.254Z,27.24
2023-05-21T13:57:03.786Z,27.05
2023-05-21T13:59:33.268Z,28.38
2023-05-21T14:02:00.956Z,28.74
2023-05-21T14:04:30.060Z,30.20
2023-05-21T14:06:57.233Z,30.56
2023-05-21T14:09:27.295Z,31.60
2023-05-21T14:11:55.227Z,32.87
2023-05-21T14:14:22.769Z,32.30
2023-05-21T14:16:50.546Z,32.35
2023-05-21T14:19:17.647Z,32.83
2023-05-21T14:21:44.764Z,33.25
2023-05-21T14:24:11.612Z,33.83
2023-05-21T14:26:41.457Z,33.94
2023-05-21T14:29:08.929Z,34.63
2023-05-21T14:31:36.338Z,35.33
2023-05-21T14:34:03.268Z,35.22
2023-05-21T14:36:30.284Z,35.08
2023-05-21T14:38:57.217Z,36.12
2023-05-21T14:41:26.709Z,36.87
2023-05-21T14:43:54.054Z,36.93
2023-05-21T14:46:21.493Z,37.09
2023-05-21T14:48:48.281Z,37.65
2023-05-21T14:51:15.315Z,38.31
2023-05-21T14:53:42.101Z,39.02
2023-05-21T14:56:08.978Z,38.73
2023-05-21T14:58:35.859Z,38.95
2023-05-21T15:01:04.251Z,39.01
2023-05-21T15:03:31.594Z,39.44
2023-05-21T15:05:58.853Z,38.46
2023-05-21T15:08:25.877Z,38.40
2023-05-21T15:10:52.739Z,37.66
2023-05-21T15:13:21.567Z,37.85
2023-05-21T15:15:49.755Z,37.14
2023-05-21T15:18:16.697Z,37.84
2023-05-21T15:20:43.624Z,37.71
2023-05-21T15:23:16.949Z,38.18
2023-05-21T15:25:46.768Z,38.35
2023-05-21T15:28:14.431Z,39.13
2023-05-21T15:30:41.229Z,38.66
2023-05-21T15:33:08.152Z,38.32
2023-05-21T15:35:36.183Z,39.11
2023-05-21T15:38:04.912Z,38.83
2023-05-21T15:40:32.361Z,39.43
2023-05-21T15:43:01.144Z,39.87
2023-05-21T15:45:28.498Z,39.49
2023-05-21T15:47:55.407Z,39.00
2023-05-21T15:50:22.179Z,38.15
2023-05-21T15:52:50.372Z,38.42
2023-05-21T15:55:19.400Z,37.37
2023-05-21T15:57:46.292Z,36.93
2023-05-21T16:00:13.654Z,37.40
2023-05-21T16:02:42.041Z,37.82
2023-05-21T16:05:09.489Z,37.32
2023-05-21T16:07:37.918Z,38.30
2023-05-21T16:10:06.679Z,38.73
2023-05-21T16:12:33.700Z,38.43
2023-05-21T16:15:00.756Z,38.23
2023-05-21T16:17:27.808Z,38.26
2023-05-21T16:19:54.607Z,38.36
2023-05-21T16:22:23.294Z,38.99
2023-05-21T16:24:50.633Z,38.95
2023-05-21T16:27:17.509Z,38.62
2023-05-21T16:29:44.386Z,39.07
2023-05-21T16:32:14.217Z,39.90
2023-05-21T16:34:41.277Z,39.88
2023-05-21T16:37:09.829Z,40.00
2023-05-21T16:39:37.093Z,40.32
2023-05-21T16:42:04.203Z,40.17
2023-05-21T16:44:32.112Z,39.93
2023-05-21T16:47:00.291Z,39.35
2023-05-21T16:49:27.696Z,39.40
2023-05-21T16:51:54.827Z,39.54
2023-05-21T16:54:21.838Z,40.09
2023-05-21T16:56:48.699Z,40.85
2023-05-21T16:59:15.471Z,41.18
2023-05-21T17:01:42.767Z,41.32
2023-05-21T17:04:09.783Z,41.74
2023-05-21T17:06:36.881Z,41.49
2023-05-21T17:09:04.103Z,40.90
2023-05-21T17:11:30.995Z,40.81
2023-05-21T17:13:57.780Z,41.40
2023-05-21T17:16:25.200Z,41.22
2023-05-21T17:18:52.471Z,41.86
2023-05-21T17:21:19.791Z,41.56
2023-05-21T17:23:46.692Z,41.25
2023-05-21T17:26:14.032Z,41.54
2023-05-21T17:28:40.969Z,41.76
2023-05-21T17:31:09.112Z,41.75
2023-05-21T17:33:37.455Z,41.27
2023-05-21T17:36:04.604Z,41.45
2023-05-21T17:38:31.502Z,41.60
2023-05-21T17:40:59.259Z,41.77
2023-05-21T17:43:27.727Z,42.17
2023-05-21T17:45:54.772Z,42.07
2023-05-21T17:48:21.660Z,42.45
2023-05-21T17:50:48.545Z,42.54
2023-05-21T17:53:16.457Z,42.79
2023-05-21T17:55:43.572Z,42.92
2023-05-21T17:58:10.454Z,43.40
2023-05-21T18:00:37.396Z,43.42
2023-05-21T18:03:04.609Z,43.85
2023-05-21T18:05:31.553Z,44.13
2023-05-21T18:08:00.001Z,44.46
2023-05-21T18:10:26.835Z,44.82
2023-05-21T18:12:53.666Z,45.15
2023-05-21T18:15:20.443Z,45.44
2023-05-21T18:17:47.458Z,45.99
2023-05-21T18:20:14.889Z,46.43
2023-05-21T18:22:41.777Z,46.50
2023-05-21T18:25:09.492Z,47.12
2023-05-21T18:27:36.426Z,47.31
2023-05-21T18:30:06.386Z,47.31
2023-05-21T18:32:34.036Z,47.55
2023-05-21T18:35:00.977Z,47.94
2023-05-21T18:37:27.855Z,49.02
2023-05-21T18:39:54.836Z,49.33
2023-05-21T18:42:21.674Z,49.73
2023-05-21T18:44:51.319Z,50.33
2023-05-21T18:47:18.427Z,50.55
2023-05-21T18:49:45.263Z,51.11
2023-05-21T18:52:12.103Z,51.67
2023-05-21T18:54:38.992Z,52.10
2023-05-21T18:57:06.136Z,52.88
2023-05-21T18:59:32.916Z,53.24
2023-05-21T19:02:00.100Z,53.65
2023-05-21T19:04:27.545Z,54.31
2023-05-21T19:06:54.961Z,53.95
2023-05-21T19:09:21.833Z,54.91
2023-05-21T19:11:49.076Z,55.21
2023-05-21T19:14:16.103Z,55.94
2023-05-21T19:16:43.191Z,56.28
2023-05-21T19:19:10.460Z,56.85
2023-05-21T19:21:37.509Z,57.15
2023-05-21T19:24:05.900Z,57.51
2023-05-21T19:26:33.060Z,57.95
2023-05-21T19:29:00.376Z,58.58
2023-05-21T19:31:27.252Z,58.34
2023-05-21T19:33:54.191Z,58.94
2023-05-21T19:36:21.327Z,59.35
2023-05-21T19:38:49.357Z,59.59
2023-05-21T19:41:17.245Z,59.88
2023-05-21T19:43:45.297Z,60.11
2023-05-21T19:46:12.320Z,60.08
2023-05-21T19:48:39.580Z,59.96
2023-05-21T19:51:06.408Z,60.30
2023-05-21T19:53:33.354Z,60.47
2023-05-21T19:56:00.410Z,60.66
2023-05-21T19:58:29.594Z,60.74
2023-05-21T20:00:59.397Z,60.80
2023-05-21T20:03:27.156Z,60.76
2023-05-21T20:05:54.619Z,60.74
2023-05-21T20:08:21.942Z,60.63
2023-05-21T20:10:51.336Z,60.75
2023-05-21T20:13:19.240Z,60.80
2023-05-21T20:15:48.081Z,60.89
2023-05-21T20:18:15.453Z,60.75
2023-05-21T20:20:43.280Z,60.83
2023-05-21T20:23:10.262Z,60.85
2023-05-21T20:25:37.244Z,60.92
2023-05-21T20:28:05.358Z,61.13
2023-05-21T20:30:34.178Z,61.13
2023-05-21T20:33:02.278Z,61.32
2023-05-21T20:35:29.403Z,61.45
2023-05-21T20:37:56.706Z,61.96
2023-05-21T20:40:26.258Z,62.00
2023-05-21T20:42:54.153Z,61.97
2023-05-21T20:45:22.175Z,62.02
2023-05-21T20:47:50.070Z,62.00
2023-05-21T20:50:18.370Z,62.11
2023-05-21T20:52:47.351Z,62.17
2023-05-21T20:55:14.872Z,62.14
2023-05-21T20:57:42.146Z,62.50
2023-05-21T21:00:12.108Z,62.78
2023-05-21T21:02:39.332Z,63.07
2023-05-21T21:05:10.436Z,63.41
2023-05-21T21:07:37.899Z,63.76
2023-05-21T21:10:05.479Z,63.51
2023-05-21T21:12:32.370Z,63.83
2023-05-21T21:14:59.214Z,63.99
2023-05-21T21:17:26.266Z,63.84
2023-05-21T21:19:53.204Z,63.90
2023-05-21T21:22:20.145Z,63.93
2023-05-21T21:24:47.640Z,63.85
2023-05-21T21:27:14.488Z,64.07
2023-05-21T21:29:41.374Z,64.03
2023-05-21T21:32:08.253Z,64.43
2023-05-21T21:34:35.041Z,64.55
2023-05-21T21:37:01.952Z,64.67
2023-05-21T21:39:28.711Z,64.77
2023-05-21T21:41:55.756Z,65.02
2023-05-21T21:44:22.600Z,64.96
2023-05-21T21:46:49.531Z,64.64
2023-05-21T21:49:17.536Z,64.66
2023-05-21T21:51:45.322Z,65.00
2023-05-21T21:54:12.558Z,64.92
2023-05-21T21:56:39.396Z,64.63
2023-05-21T21:59:06.273Z,64.92
2023-05-21T22:01:33.597Z,65.03
2023-05-21T22:04:00.542Z,65.03
2023-05-21T22:06:28.686Z,65.16
2023-05-21T22:08:55.793Z,65.50
2023-05-21T22:11:24.262Z,65.57
2023-05-21T22:13:51.139Z,65.36
2023-05-21T22:16:17.899Z,65.76
2023-05-21T22:18:45.093Z,65.48
2023-05-21T22:21:14.534Z,65.31
2023-05-21T22:23:42.602Z,65.45
2023-05-21T22:26:09.884Z,65.72
2023-05-21T22:28:36.753Z,65.32
2023-05-21T22:31:03.787Z,65.20
2023-05-21T22:33:30.780Z,64.96
2023-05-21T22:35:58.270Z,65.08
2023-05-21T22:38:25.888Z,65.72
2023-05-21T22:40:52.860Z,65.92
2023-05-21T22:43:19.759Z,66.42
2023-05-21T22:45:47.247Z,66.65
2023-05-21T22:48:14.485Z,66.95
2023-05-21T22:50:41.502Z,66.75
2023-05-21T22:53:08.617Z,67.61
2023-05-21T22:55:35.524Z,68.03
2023-05-21T22:58:02.590Z,67.95
2023-05-21T23:00:29.627Z,68.22
2023-05-21T23:02:56.648Z,68.34
2023-05-21T23:05:23.557Z,68.48
2023-05-21T23:07:50.538Z,68.38
2023-05-21T23:10:17.518Z,68.80
2023-05-21T23:12:44.432Z,69.01
2023-05-21T23:15:11.446Z,69.50
2023-05-21T23:17:38.682Z,70.47
2023-05-21T23:20:07.422Z,70.58
2023-05-21T23:22:35.084Z,70.81
2023-05-21T23:25:02.316Z,70.53
2023-05-21T23:27:29.359Z,70.56
2023-05-21T23:29:56.456Z,70.47
2023-05-21T23:32:23.780Z,70.71
2023-05-21T23:34:50.929Z,71.00
2023-05-21T23:37:17.852Z,71.05
2023-05-21T23:39:48.385Z,70.90
2023-05-21T23:42:17.496Z,71.49
2023-05-21T23:44:44.499Z,71.91
2023-05-21T23:47:11.326Z,71.71
2023-05-21T23:49:38.859Z,71.55
2023-05-21T23:52:06.149Z,71.09
2023-05-21T23:54:32.973Z,70.91
2023-05-21T23:57:01.086Z,70.80
2023-05-21T23:59:27.880Z,70.91
